Inicio METAR Ruta Wind Satelite

Informe Meteorológico

Fecha: 2021/09/21 14:27:52 Local
2021.09.21 19:27 UTC


Operación:
SKQU 211900Z 15005KT 8000 SCT020 BKN070 30/20 Q1010 RMK VCSH/SE A2982 =